sensor_id;sensor_type;location;lat;lon;timestamp;temperature;humidity
3086;DHT22;52812;48.960;9.108;2022-09-09T00:06:55;14.50;99.90
3086;DHT22;52812;48.960;9.108;2022-09-09T00:09:27;14.50;99.90
3086;DHT22;52812;48.960;9.108;2022-09-09T00:14:54;14.60;99.90
3086;DHT22;52812;48.960;9.108;2022-09-09T00:17:47;14.60;99.90
3086;DHT22;52812;48.960;9.108;2022-09-09T00:22:54;14.70;99.90
3086;DHT22;52812;48.960;9.108;2022-09-09T00:25:31;14.70;99.90
3086;DHT22;52812;48.960;9.108;2022-09-09T00:27:59;14.70;99.90
3086;DHT22;52812;48.960;9.108;2022-09-09T00:30:27;14.70;99.90
3086;DHT22;52812;48.960;9.108;2022-09-09T00:33:01;14.70;99.90
3086;DHT22;52812;48.960;9.108;2022-09-09T00:35:40;14.80;99.90
3086;DHT22;52812;48.960;9.108;2022-09-09T00:38:17;14.70;99.90
3086;DHT22;52812;48.960;9.108;2022-09-09T00:40:53;14.70;99.90
3086;DHT22;52812;48.960;9.108;2022-09-09T00:43:28;14.70;99.90
3086;DHT22;52812;48.960;9.108;2022-09-09T00:54:27;14.70;99.90
3086;DHT22;52812;48.960;9.108;2022-09-09T00:57:10;14.70;99.90
3086;DHT22;52812;48.960;9.108;2022-09-09T00:59:51;14.80;99.90
3086;DHT22;52812;48.960;9.108;2022-09-09T01:02:27;14.80;99.90
3086;DHT22;52812;48.960;9.108;2022-09-09T01:04:54;14.80;99.90
3086;DHT22;52812;48.960;9.108;2022-09-09T01:07:20;14.90;99.90
3086;DHT22;52812;48.960;9.108;2022-09-09T01:09:56;14.90;99.90
3086;DHT22;52812;48.960;9.108;2022-09-09T01:12:37;15.00;99.90
3086;DHT22;52812;48.960;9.108;2022-09-09T01:15:26;14.90;99.90
3086;DHT22;52812;48.960;9.108;2022-09-09T01:18:06;15.00;99.90
3086;DHT22;52812;48.960;9.108;2022-09-09T01:28:34;15.10;99.90
3086;DHT22;52812;48.960;9.108;2022-09-09T01:31:04;15.00;99.90
3086;DHT22;52812;48.960;9.108;2022-09-09T01:33:32;15.00;99.90
3086;DHT22;52812;48.960;9.108;2022-09-09T01:36:02;15.00;99.90
3086;DHT22;52812;48.960;9.108;2022-09-09T01:38:31;14.90;99.90
3086;DHT22;52812;48.960;9.108;2022-09-09T01:40:58;15.00;99.90
3086;DHT22;52812;48.960;9.108;2022-09-09T01:43:24;15.00;99.90
3086;DHT22;52812;48.960;9.108;2022-09-09T01:45:55;15.00;99.90
3086;DHT22;52812;48.960;9.108;2022-09-09T01:48:22;14.90;99.90
3086;DHT22;52812;48.960;9.108;2022-09-09T01:50:48;14.90;99.90
3086;DHT22;52812;48.960;9.108;2022-09-09T01:53:17;14.90;99.90
3086;DHT22;52812;48.960;9.108;2022-09-09T02:03:34;14.90;99.90
3086;DHT22;52812;48.960;9.108;2022-09-09T02:08:39;15.00;99.90
3086;DHT22;52812;48.960;9.108;2022-09-09T02:11:18;15.00;99.90
3086;DHT22;52812;48.960;9.108;2022-09-09T02:13:46;15.00;99.90
3086;DHT22;52812;48.960;9.108;2022-09-09T02:16:14;15.00;99.90
3086;DHT22;52812;48.960;9.108;2022-09-09T02:19:01;14.90;99.90
3086;DHT22;52812;48.960;9.108;2022-09-09T02:21:29;14.90;99.90
3086;DHT22;52812;48.960;9.108;2022-09-09T02:23:58;14.80;99.90
3086;DHT22;52812;48.960;9.108;2022-09-09T02:26:24;14.80;99.90
3086;DHT22;52812;48.960;9.108;2022-09-09T02:28:53;14.70;99.90
3086;DHT22;52812;48.960;9.108;2022-09-09T02:31:22;14.70;99.90
3086;DHT22;52812;48.960;9.108;2022-09-09T02:33:55;14.50;99.90
3086;DHT22;52812;48.960;9.108;2022-09-09T02:36:24;14.50;99.90
3086;DHT22;52812;48.960;9.108;2022-09-09T02:38:51;14.40;99.90
3086;DHT22;52812;48.960;9.108;2022-09-09T02:41:37;14.30;99.90
3086;DHT22;52812;48.960;9.108;2022-09-09T02:44:15;14.20;99.90
3086;DHT22;52812;48.960;9.108;2022-09-09T02:47:05;14.20;99.90
3086;DHT22;52812;48.960;9.108;2022-09-09T02:58:04;14.10;99.90
3086;DHT22;52812;48.960;9.108;2022-09-09T03:00:31;14.10;99.90
3086;DHT22;52812;48.960;9.108;2022-09-09T03:02:57;14.20;99.90
3086;DHT22;52812;48.960;9.108;2022-09-09T03:05:23;14.20;99.90
3086;DHT22;52812;48.960;9.108;2022-09-09T03:07:49;14.20;99.90
3086;DHT22;52812;48.960;9.108;2022-09-09T03:10:16;14.20;99.90
3086;DHT22;52812;48.960;9.108;2022-09-09T03:12:42;14.10;99.90
3086;DHT22;52812;48.960;9.108;2022-09-09T03:15:09;14.10;99.90
3086;DHT22;52812;48.960;9.108;2022-09-09T03:17:35;14.10;99.90
3086;DHT22;52812;48.960;9.108;2022-09-09T03:20:03;14.00;99.90
3086;DHT22;52812;48.960;9.108;2022-09-09T03:22:29;14.00;99.90
3086;DHT22;52812;48.960;9.108;2022-09-09T03:24:54;14.00;99.90
3086;DHT22;52812;48.960;9.108;2022-09-09T03:27:20;14.00;99.90
3086;DHT22;52812;48.960;9.108;2022-09-09T03:29:46;13.90;99.90
3086;DHT22;52812;48.960;9.108;2022-09-09T03:32:12;13.70;99.90
3086;DHT22;52812;48.960;9.108;2022-09-09T03:34:38;13.70;99.90
3086;DHT22;52812;48.960;9.108;2022-09-09T03:37:06;13.70;99.90
3086;DHT22;52812;48.960;9.108;2022-09-09T03:39:32;13.60;99.90
3086;DHT22;52812;48.960;9.108;2022-09-09T03:41:57;13.60;99.90
3086;DHT22;52812;48.960;9.108;2022-09-09T03:44:23;13.60;99.90
3086;DHT22;52812;48.960;9.108;2022-09-09T03:46:49;13.50;99.90
3086;DHT22;52812;48.960;9.108;2022-09-09T03:49:14;13.60;99.90
3086;DHT22;52812;48.960;9.108;2022-09-09T03:51:41;13.70;99.90
3086;DHT22;52812;48.960;9.108;2022-09-09T03:54:09;13.70;99.90
3086;DHT22;52812;48.960;9.108;2022-09-09T03:56:36;13.80;99.90
3086;DHT22;52812;48.960;9.108;2022-09-09T03:59:02;13.80;99.90
3086;DHT22;52812;48.960;9.108;2022-09-09T04:01:28;13.80;99.90
3086;DHT22;52812;48.960;9.108;2022-09-09T04:03:54;13.80;99.90
3086;DHT22;52812;48.960;9.108;2022-09-09T04:06:23;13.80;99.90
3086;DHT22;52812;48.960;9.108;2022-09-09T04:08:49;13.70;99.90
3086;DHT22;52812;48.960;9.108;2022-09-09T04:11:15;13.70;99.90
3086;DHT22;52812;48.960;9.108;2022-09-09T04:13:41;13.60;99.90
3086;DHT22;52812;48.960;9.108;2022-09-09T04:16:08;13.60;99.90
3086;DHT22;52812;48.960;9.108;2022-09-09T04:18:34;13.60;99.90
3086;DHT22;52812;48.960;9.108;2022-09-09T04:21:00;13.70;99.90
3086;DHT22;52812;48.960;9.108;2022-09-09T04:23:27;13.70;99.90
3086;DHT22;52812;48.960;9.108;2022-09-09T04:25:55;13.70;99.90
3086;DHT22;52812;48.960;9.108;2022-09-09T04:28:22;13.70;99.90
3086;DHT22;52812;48.960;9.108;2022-09-09T04:30:48;13.60;99.90
3086;DHT22;52812;48.960;9.108;2022-09-09T04:33:14;13.70;99.90
3086;DHT22;52812;48.960;9.108;2022-09-09T04:35:45;13.70;99.90
3086;DHT22;52812;48.960;9.108;2022-09-09T04:38:12;13.80;99.90
3086;DHT22;52812;48.960;9.108;2022-09-09T04:40:37;13.90;99.90
3086;DHT22;52812;48.960;9.108;2022-09-09T04:43:05;14.00;99.90
3086;DHT22;52812;48.960;9.108;2022-09-09T04:45:31;14.00;99.90
3086;DHT22;52812;48.960;9.108;2022-09-09T04:47:57;14.00;99.90
3086;DHT22;52812;48.960;9.108;2022-09-09T04:50:22;14.10;99.90
3086;DHT22;52812;48.960;9.108;2022-09-09T04:52:48;14.10;99.90
3086;DHT22;52812;48.960;9.108;2022-09-09T04:55:14;14.10;99.90
3086;DHT22;52812;48.960;9.108;2022-09-09T04:57:40;14.00;99.90
3086;DHT22;52812;48.960;9.108;2022-09-09T05:00:06;14.00;99.90
3086;DHT22;52812;48.960;9.108;2022-09-09T05:02:32;14.00;99.90
3086;DHT22;52812;48.960;9.108;2022-09-09T05:04:58;14.00;99.90
3086;DHT22;52812;48.960;9.108;2022-09-09T05:07:24;14.10;99.90
3086;DHT22;52812;48.960;9.108;2022-09-09T05:09:51;14.00;99.90
3086;DHT22;52812;48.960;9.108;2022-09-09T05:12:17;14.00;99.90
3086;DHT22;52812;48.960;9.108;2022-09-09T05:14:43;14.00;99.90
3086;DHT22;52812;48.960;9.108;2022-09-09T05:17:09;14.00;99.90
3086;DHT22;52812;48.960;9.108;2022-09-09T05:19:35;14.00;99.90
3086;DHT22;52812;48.960;9.108;2022-09-09T05:22:00;14.00;99.90
3086;DHT22;52812;48.960;9.108;2022-09-09T05:24:26;14.10;99.90
3086;DHT22;52812;48.960;9.108;2022-09-09T05:26:52;14.10;99.90
3086;DHT22;52812;48.960;9.108;2022-09-09T05:29:18;14.20;99.90
3086;DHT22;52812;48.960;9.108;2022-09-09T05:31:45;14.20;99.90
3086;DHT22;52812;48.960;9.108;2022-09-09T05:34:10;14.30;99.90
3086;DHT22;52812;48.960;9.108;2022-09-09T05:36:36;14.50;99.90
3086;DHT22;52812;48.960;9.108;2022-09-09T05:39:02;14.60;99.90
3086;DHT22;52812;48.960;9.108;2022-09-09T05:41:28;14.70;99.90
3086;DHT22;52812;48.960;9.108;2022-09-09T05:43:55;14.80;99.90
3086;DHT22;52812;48.960;9.108;2022-09-09T05:46:22;14.80;99.90
3086;DHT22;52812;48.960;9.108;2022-09-09T05:48:49;14.90;99.90
3086;DHT22;52812;48.960;9.108;2022-09-09T05:51:24;15.00;99.90
3086;DHT22;52812;48.960;9.108;2022-09-09T05:53:50;15.20;99.90
3086;DHT22;52812;48.960;9.108;2022-09-09T05:56:22;15.40;99.90
3086;DHT22;52812;48.960;9.108;2022-09-09T05:58:49;15.50;99.90
3086;DHT22;52812;48.960;9.108;2022-09-09T06:01:17;15.80;99.90
3086;DHT22;52812;48.960;9.108;2022-09-09T06:03:44;16.00;99.90
3086;DHT22;52812;48.960;9.108;2022-09-09T06:06:18;16.30;99.90
3086;DHT22;52812;48.960;9.108;2022-09-09T06:08:46;16.80;99.90
3086;DHT22;52812;48.960;9.108;2022-09-09T06:11:21;16.80;99.90
3086;DHT22;52812;48.960;9.108;2022-09-09T06:13:48;16.70;99.90
3086;DHT22;52812;48.960;9.108;2022-09-09T06:16:17;16.50;99.90
3086;DHT22;52812;48.960;9.108;2022-09-09T06:18:44;16.50;99.90
3086;DHT22;52812;48.960;9.108;2022-09-09T06:21:20;16.30;99.90
3086;DHT22;52812;48.960;9.108;2022-09-09T06:23:47;16.40;99.90
3086;DHT22;52812;48.960;9.108;2022-09-09T06:26:18;16.50;99.90
3086;DHT22;52812;48.960;9.108;2022-09-09T06:28:45;17.10;99.90
3086;DHT22;52812;48.960;9.108;2022-09-09T06:31:13;17.90;99.90
3086;DHT22;52812;48.960;9.108;2022-09-09T06:33:41;18.30;99.90
3086;DHT22;52812;48.960;9.108;2022-09-09T06:36:15;18.20;99.90
3086;DHT22;52812;48.960;9.108;2022-09-09T06:38:45;18.10;99.90
3086;DHT22;52812;48.960;9.108;2022-09-09T06:41:12;17.90;99.90
3086;DHT22;52812;48.960;9.108;2022-09-09T06:43:38;17.80;99.90
3086;DHT22;52812;48.960;9.108;2022-09-09T06:46:25;17.60;99.90
3086;DHT22;52812;48.960;9.108;2022-09-09T06:48:54;17.60;99.90
3086;DHT22;52812;48.960;9.108;2022-09-09T06:51:22;17.80;99.90
3086;DHT22;52812;48.960;9.108;2022-09-09T06:53:53;17.80;99.90
3086;DHT22;52812;48.960;9.108;2022-09-09T06:58:54;17.90;99.90
3086;DHT22;52812;48.960;9.108;2022-09-09T07:01:23;18.00;99.90
3086;DHT22;52812;48.960;9.108;2022-09-09T07:03:51;18.10;99.90
3086;DHT22;52812;48.960;9.108;2022-09-09T07:06:28;18.10;99.90
3086;DHT22;52812;48.960;9.108;2022-09-09T07:08:59;18.20;99.90
3086;DHT22;52812;48.960;9.108;2022-09-09T07:11:28;18.30;99.90
3086;DHT22;52812;48.960;9.108;2022-09-09T07:13:54;18.40;99.90
3086;DHT22;52812;48.960;9.108;2022-09-09T07:16:21;18.50;99.90
3086;DHT22;52812;48.960;9.108;2022-09-09T07:18:51;18.60;99.90
3086;DHT22;52812;48.960;9.108;2022-09-09T07:21:18;18.70;99.90
3086;DHT22;52812;48.960;9.108;2022-09-09T07:23:44;18.90;99.90
3086;DHT22;52812;48.960;9.108;2022-09-09T07:26:12;19.10;99.90
3086;DHT22;52812;48.960;9.108;2022-09-09T07:28:39;19.30;99.90
3086;DHT22;52812;48.960;9.108;2022-09-09T07:31:05;19.30;99.90
3086;DHT22;52812;48.960;9.108;2022-09-09T07:33:33;19.50;99.90
3086;DHT22;52812;48.960;9.108;2022-09-09T07:36:13;19.90;99.90
3086;DHT22;52812;48.960;9.108;2022-09-09T07:38:44;20.20;99.90
3086;DHT22;52812;48.960;9.108;2022-09-09T07:41:14;20.20;99.90
3086;DHT22;52812;48.960;9.108;2022-09-09T07:43:41;20.40;99.90
3086;DHT22;52812;48.960;9.108;2022-09-09T07:46:09;20.80;99.90
3086;DHT22;52812;48.960;9.108;2022-09-09T07:48:36;21.30;99.90
3086;DHT22;52812;48.960;9.108;2022-09-09T07:51:13;21.40;99.90
3086;DHT22;52812;48.960;9.108;2022-09-09T07:53:43;22.00;99.90
3086;DHT22;52812;48.960;9.108;2022-09-09T07:56:12;22.70;99.90
3086;DHT22;52812;48.960;9.108;2022-09-09T07:58:39;23.10;99.90
3086;DHT22;52812;48.960;9.108;2022-09-09T08:01:11;22.80;99.90
3086;DHT22;52812;48.960;9.108;2022-09-09T08:03:37;22.50;99.90
3086;DHT22;52812;48.960;9.108;2022-09-09T08:06:06;21.70;99.90
3086;DHT22;52812;48.960;9.108;2022-09-09T08:08:33;21.60;99.90
3086;DHT22;52812;48.960;9.108;2022-09-09T08:11:17;21.70;99.90
3086;DHT22;52812;48.960;9.108;2022-09-09T08:13:44;22.20;99.90
3086;DHT22;52812;48.960;9.108;2022-09-09T08:16:17;22.30;99.90
3086;DHT22;52812;48.960;9.108;2022-09-09T08:18:43;22.30;99.90
3086;DHT22;52812;48.960;9.108;2022-09-09T08:21:13;22.30;99.90
3086;DHT22;52812;48.960;9.108;2022-09-09T08:23:41;22.20;99.90
3086;DHT22;52812;48.960;9.108;2022-09-09T08:26:16;21.90;99.90
3086;DHT22;52812;48.960;9.108;2022-09-09T08:28:42;21.90;99.90
3086;DHT22;52812;48.960;9.108;2022-09-09T08:31:29;21.80;99.90
3086;DHT22;52812;48.960;9.108;2022-09-09T08:33:57;21.70;99.90
3086;DHT22;52812;48.960;9.108;2022-09-09T08:36:25;21.70;99.90
3086;DHT22;52812;48.960;9.108;2022-09-09T08:38:56;21.90;99.90
3086;DHT22;52812;48.960;9.108;2022-09-09T08:41:59;21.60;99.90
3086;DHT22;52812;48.960;9.108;2022-09-09T08:52:46;22.40;99.90
3086;DHT22;52812;48.960;9.108;2022-09-09T08:55:28;22.50;99.90
3086;DHT22;52812;48.960;9.108;2022-09-09T08:58:08;22.60;99.90
3086;DHT22;52812;48.960;9.108;2022-09-09T09:09:45;23.20;99.90
3086;DHT22;52812;48.960;9.108;2022-09-09T09:12:20;23.30;99.90
3086;DHT22;52812;48.960;9.108;2022-09-09T09:14:47;23.40;99.90
3086;DHT22;52812;48.960;9.108;2022-09-09T09:17:18;23.40;99.90
3086;DHT22;52812;48.960;9.108;2022-09-09T09:19:45;23.30;99.90
3086;DHT22;52812;48.960;9.108;2022-09-09T09:22:40;23.40;99.90
3086;DHT22;52812;48.960;9.108;2022-09-09T09:27:52;23.60;99.90
3086;DHT22;52812;48.960;9.108;2022-09-09T09:30:22;23.80;99.90
3086;DHT22;52812;48.960;9.108;2022-09-09T09:32:55;23.90;99.90
3086;DHT22;52812;48.960;9.108;2022-09-09T09:35:22;24.00;99.90
3086;DHT22;52812;48.960;9.108;2022-09-09T09:37:49;24.00;99.90
3086;DHT22;52812;48.960;9.108;2022-09-09T09:40:20;24.00;99.90
3086;DHT22;52812;48.960;9.108;2022-09-09T09:42:57;24.40;99.90
3086;DHT22;52812;48.960;9.108;2022-09-09T09:45:34;24.50;99.90
3086;DHT22;52812;48.960;9.108;2022-09-09T09:48:10;24.60;99.90
3086;DHT22;52812;48.960;9.108;2022-09-09T09:50:55;24.60;99.90
3086;DHT22;52812;48.960;9.108;2022-09-09T09:53:34;24.60;99.90
3086;DHT22;52812;48.960;9.108;2022-09-09T09:58:27;24.90;99.90
3086;DHT22;52812;48.960;9.108;2022-09-09T10:00:56;25.10;99.90
3086;DHT22;52812;48.960;9.108;2022-09-09T10:03:30;25.20;99.90
3086;DHT22;52812;48.960;9.108;2022-09-09T10:05:56;25.30;99.90
3086;DHT22;52812;48.960;9.108;2022-09-09T10:08:27;24.80;99.90
3086;DHT22;52812;48.960;9.108;2022-09-09T10:11:19;23.70;99.90
3086;DHT22;52812;48.960;9.108;2022-09-09T10:13:47;22.90;99.90
3086;DHT22;52812;48.960;9.108;2022-09-09T10:19:13;21.10;99.90
3086;DHT22;52812;48.960;9.108;2022-09-09T10:24:31;20.00;99.90
3086;DHT22;52812;48.960;9.108;2022-09-09T10:27:29;20.20;99.90
3086;DHT22;52812;48.960;9.108;2022-09-09T10:30:04;20.60;99.90
3086;DHT22;52812;48.960;9.108;2022-09-09T10:32:41;20.80;99.90
3086;DHT22;52812;48.960;9.108;2022-09-09T10:36:02;21.10;99.90
3086;DHT22;52812;48.960;9.108;2022-09-09T10:43:29;20.60;99.90
3086;DHT22;52812;48.960;9.108;2022-09-09T10:46:02;20.40;99.90
3086;DHT22;52812;48.960;9.108;2022-09-09T10:51:31;20.20;99.90
3086;DHT22;52812;48.960;9.108;2022-09-09T10:54:30;20.20;99.90
3086;DHT22;52812;48.960;9.108;2022-09-09T10:57:05;20.30;99.90
3086;DHT22;52812;48.960;9.108;2022-09-09T10:59:47;20.40;99.90
3086;DHT22;52812;48.960;9.108;2022-09-09T11:02:33;20.50;99.90
3086;DHT22;52812;48.960;9.108;2022-09-09T11:07:50;20.80;99.90
3086;DHT22;52812;48.960;9.108;2022-09-09T11:10:28;21.00;99.90
3086;DHT22;52812;48.960;9.108;2022-09-09T11:13:02;21.10;99.90
3086;DHT22;52812;48.960;9.108;2022-09-09T11:15:39;21.00;99.90
3086;DHT22;52812;48.960;9.108;2022-09-09T11:18:13;20.80;99.90
3086;DHT22;52812;48.960;9.108;2022-09-09T11:20:41;21.00;99.90
3086;DHT22;52812;48.960;9.108;2022-09-09T11:23:15;21.00;99.90
3086;DHT22;52812;48.960;9.108;2022-09-09T11:25:53;20.60;99.90
3086;DHT22;52812;48.960;9.108;2022-09-09T11:28:32;20.20;99.90
3086;DHT22;52812;48.960;9.108;2022-09-09T11:36:56;19.60;99.90
3086;DHT22;52812;48.960;9.108;2022-09-09T11:42:21;19.30;99.90
3086;DHT22;52812;48.960;9.108;2022-09-09T11:44:47;19.30;99.90
3086;DHT22;52812;48.960;9.108;2022-09-09T11:47:28;19.30;99.90
3086;DHT22;52812;48.960;9.108;2022-09-09T11:52:42;19.20;99.90
3086;DHT22;52812;48.960;9.108;2022-09-09T11:55:31;19.10;99.90
3086;DHT22;52812;48.960;9.108;2022-09-09T12:06:10;19.60;99.90
3086;DHT22;52812;48.960;9.108;2022-09-09T12:08:42;19.60;99.90
3086;DHT22;52812;48.960;9.108;2022-09-09T12:11:08;19.70;99.90
3086;DHT22;52812;48.960;9.108;2022-09-09T12:13:34;20.00;99.90
3086;DHT22;52812;48.960;9.108;2022-09-09T12:16:01;20.20;99.90
3086;DHT22;52812;48.960;9.108;2022-09-09T12:18:40;20.60;99.90
3086;DHT22;52812;48.960;9.108;2022-09-09T12:21:18;20.90;99.90
3086;DHT22;52812;48.960;9.108;2022-09-09T12:23:54;21.40;99.90
3086;DHT22;52812;48.960;9.108;2022-09-09T12:26:32;21.70;99.90
3086;DHT22;52812;48.960;9.108;2022-09-09T12:29:34;21.80;99.90
3086;DHT22;52812;48.960;9.108;2022-09-09T12:32:16;21.80;99.90
3086;DHT22;52812;48.960;9.108;2022-09-09T12:34:58;21.90;99.90
3086;DHT22;52812;48.960;9.108;2022-09-09T12:37:49;22.30;99.90
3086;DHT22;52812;48.960;9.108;2022-09-09T12:40:28;22.50;99.90
3086;DHT22;52812;48.960;9.108;2022-09-09T12:42:54;22.60;99.90
3086;DHT22;52812;48.960;9.108;2022-09-09T12:45:24;22.30;99.90
3086;DHT22;52812;48.960;9.108;2022-09-09T12:48:03;22.30;99.90
3086;DHT22;52812;48.960;9.108;2022-09-09T12:50:33;22.00;99.90
3086;DHT22;52812;48.960;9.108;2022-09-09T12:53:08;21.90;99.90
3086;DHT22;52812;48.960;9.108;2022-09-09T12:55:37;21.90;99.90
3086;DHT22;52812;48.960;9.108;2022-09-09T12:58:04;21.90;99.90
3086;DHT22;52812;48.960;9.108;2022-09-09T13:00:32;21.70;99.90
3086;DHT22;52812;48.960;9.108;2022-09-09T13:03:00;21.40;99.90
3086;DHT22;52812;48.960;9.108;2022-09-09T13:05:34;21.30;99.90
3086;DHT22;52812;48.960;9.108;2022-09-09T13:08:10;21.10;99.90
3086;DHT22;52812;48.960;9.108;2022-09-09T13:10:48;21.30;99.90
3086;DHT22;52812;48.960;9.108;2022-09-09T13:13:22;21.40;99.90
3086;DHT22;52812;48.960;9.108;2022-09-09T13:15:51;21.60;99.90
3086;DHT22;52812;48.960;9.108;2022-09-09T13:18:21;21.80;99.90
3086;DHT22;52812;48.960;9.108;2022-09-09T13:20:48;21.90;99.90
3086;DHT22;52812;48.960;9.108;2022-09-09T13:23:15;22.00;99.90
3086;DHT22;52812;48.960;9.108;2022-09-09T13:25:56;22.10;99.90
3086;DHT22;52812;48.960;9.108;2022-09-09T13:28:27;22.20;99.90
3086;DHT22;52812;48.960;9.108;2022-09-09T13:31:03;22.30;99.90
3086;DHT22;52812;48.960;9.108;2022-09-09T13:33:34;22.30;99.90
3086;DHT22;52812;48.960;9.108;2022-09-09T13:36:08;22.30;99.90
3086;DHT22;52812;48.960;9.108;2022-09-09T13:38:53;22.20;99.90
3086;DHT22;52812;48.960;9.108;2022-09-09T13:41:21;22.30;99.90
3086;DHT22;52812;48.960;9.108;2022-09-09T13:43:50;22.30;99.90
3086;DHT22;52812;48.960;9.108;2022-09-09T13:46:35;22.50;99.90
3086;DHT22;52812;48.960;9.108;2022-09-09T13:51:39;22.60;99.90
3086;DHT22;52812;48.960;9.108;2022-09-09T13:54:06;22.60;99.90
3086;DHT22;52812;48.960;9.108;2022-09-09T13:56:35;22.60;99.90
3086;DHT22;52812;48.960;9.108;2022-09-09T13:59:03;22.60;99.90
3086;DHT22;52812;48.960;9.108;2022-09-09T14:01:28;22.80;99.90
3086;DHT22;52812;48.960;9.108;2022-09-09T14:03:55;23.00;99.90
3086;DHT22;52812;48.960;9.108;2022-09-09T14:06:21;23.00;99.90
3086;DHT22;52812;48.960;9.108;2022-09-09T14:08:48;23.00;99.90
3086;DHT22;52812;48.960;9.108;2022-09-09T14:11:15;23.00;99.90
3086;DHT22;52812;48.960;9.108;2022-09-09T14:13:41;22.80;99.90
3086;DHT22;52812;48.960;9.108;2022-09-09T14:16:06;22.70;99.90
3086;DHT22;52812;48.960;9.108;2022-09-09T14:18:32;22.50;99.90
3086;DHT22;52812;48.960;9.108;2022-09-09T14:20:59;22.40;99.90
3086;DHT22;52812;48.960;9.108;2022-09-09T14:23:25;22.30;99.90
3086;DHT22;52812;48.960;9.108;2022-09-09T14:25:51;22.10;99.90
3086;DHT22;52812;48.960;9.108;2022-09-09T14:28:17;22.10;99.90
3086;DHT22;52812;48.960;9.108;2022-09-09T14:30:43;22.10;99.90
3086;DHT22;52812;48.960;9.108;2022-09-09T14:33:14;22.10;99.90
3086;DHT22;52812;48.960;9.108;2022-09-09T14:35:41;22.20;99.90
3086;DHT22;52812;48.960;9.108;2022-09-09T14:38:07;22.20;99.90
3086;DHT22;52812;48.960;9.108;2022-09-09T14:40:37;22.10;99.90
3086;DHT22;52812;48.960;9.108;2022-09-09T14:43:04;22.00;99.90
3086;DHT22;52812;48.960;9.108;2022-09-09T14:45:31;22.00;99.90
3086;DHT22;52812;48.960;9.108;2022-09-09T14:47:56;22.00;99.90
3086;DHT22;52812;48.960;9.108;2022-09-09T14:50:23;21.80;99.90
3086;DHT22;52812;48.960;9.108;2022-09-09T14:52:49;21.60;99.90
3086;DHT22;52812;48.960;9.108;2022-09-09T14:55:15;21.70;99.90
3086;DHT22;52812;48.960;9.108;2022-09-09T14:57:41;21.70;99.90
3086;DHT22;52812;48.960;9.108;2022-09-09T15:00:09;21.80;99.90
3086;DHT22;52812;48.960;9.108;2022-09-09T15:02:35;21.90;99.90
3086;DHT22;52812;48.960;9.108;2022-09-09T15:05:01;21.90;99.90
3086;DHT22;52812;48.960;9.108;2022-09-09T15:07:27;21.80;99.90
3086;DHT22;52812;48.960;9.108;2022-09-09T15:09:53;21.80;99.90
3086;DHT22;52812;48.960;9.108;2022-09-09T15:12:20;21.80;99.90
3086;DHT22;52812;48.960;9.108;2022-09-09T15:14:46;21.60;99.90
3086;DHT22;52812;48.960;9.108;2022-09-09T15:17:12;21.60;99.90
3086;DHT22;52812;48.960;9.108;2022-09-09T15:19:37;21.60;99.90
3086;DHT22;52812;48.960;9.108;2022-09-09T15:22:04;21.70;99.90
3086;DHT22;52812;48.960;9.108;2022-09-09T15:24:33;21.80;99.90
3086;DHT22;52812;48.960;9.108;2022-09-09T15:26:59;21.80;99.90
3086;DHT22;52812;48.960;9.108;2022-09-09T15:29:25;21.70;99.90
3086;DHT22;52812;48.960;9.108;2022-09-09T15:31:50;21.50;99.90
3086;DHT22;52812;48.960;9.108;2022-09-09T15:34:16;21.50;99.90
3086;DHT22;52812;48.960;9.108;2022-09-09T15:36:43;21.70;99.90
3086;DHT22;52812;48.960;9.108;2022-09-09T15:39:17;21.70;99.90
3086;DHT22;52812;48.960;9.108;2022-09-09T15:41:44;21.60;99.90
3086;DHT22;52812;48.960;9.108;2022-09-09T15:44:10;21.60;99.90
3086;DHT22;52812;48.960;9.108;2022-09-09T15:46:42;21.60;99.90
3086;DHT22;52812;48.960;9.108;2022-09-09T15:49:26;21.50;99.90
3086;DHT22;52812;48.960;9.108;2022-09-09T15:51:54;21.40;99.90
3086;DHT22;52812;48.960;9.108;2022-09-09T15:54:22;21.20;99.90
3086;DHT22;52812;48.960;9.108;2022-09-09T15:56:54;21.10;99.90
3086;DHT22;52812;48.960;9.108;2022-09-09T15:59:25;21.00;99.90
3086;DHT22;52812;48.960;9.108;2022-09-09T16:01:53;20.90;99.90
3086;DHT22;52812;48.960;9.108;2022-09-09T16:04:21;20.80;99.90
3086;DHT22;52812;48.960;9.108;2022-09-09T16:06:58;20.70;99.90
3086;DHT22;52812;48.960;9.108;2022-09-09T16:09:25;20.60;99.90
3086;DHT22;52812;48.960;9.108;2022-09-09T16:11:50;20.60;99.90
3086;DHT22;52812;48.960;9.108;2022-09-09T16:14:18;20.30;99.90
3086;DHT22;52812;48.960;9.108;2022-09-09T16:16:44;19.50;99.90
3086;DHT22;52812;48.960;9.108;2022-09-09T16:19:12;19.10;99.90
3086;DHT22;52812;48.960;9.108;2022-09-09T16:21:40;18.60;99.90
3086;DHT22;52812;48.960;9.108;2022-09-09T16:24:08;18.30;99.90
3086;DHT22;52812;48.960;9.108;2022-09-09T16:26:36;18.10;99.90
3086;DHT22;52812;48.960;9.108;2022-09-09T16:29:03;17.80;99.90
3086;DHT22;52812;48.960;9.108;2022-09-09T16:31:30;17.30;99.90
3086;DHT22;52812;48.960;9.108;2022-09-09T16:33:57;16.90;99.90
3086;DHT22;52812;48.960;9.108;2022-09-09T16:36:25;16.50;99.90
3086;DHT22;52812;48.960;9.108;2022-09-09T16:38:56;16.30;99.90
3086;DHT22;52812;48.960;9.108;2022-09-09T16:41:23;16.10;99.90
3086;DHT22;52812;48.960;9.108;2022-09-09T16:43:53;16.00;99.90
3086;DHT22;52812;48.960;9.108;2022-09-09T16:46:21;15.90;99.90
3086;DHT22;52812;48.960;9.108;2022-09-09T16:48:48;15.80;99.90
3086;DHT22;52812;48.960;9.108;2022-09-09T16:51:22;15.80;99.90
3086;DHT22;52812;48.960;9.108;2022-09-09T16:53:52;15.70;99.90
3086;DHT22;52812;48.960;9.108;2022-09-09T16:56:24;15.70;99.90
3086;DHT22;52812;48.960;9.108;2022-09-09T16:58:55;15.60;99.90
3086;DHT22;52812;48.960;9.108;2022-09-09T17:01:25;15.70;99.90
3086;DHT22;52812;48.960;9.108;2022-09-09T17:03:58;15.70;99.90
3086;DHT22;52812;48.960;9.108;2022-09-09T17:06:24;15.80;99.90
3086;DHT22;52812;48.960;9.108;2022-09-09T17:08:58;15.90;99.90
3086;DHT22;52812;48.960;9.108;2022-09-09T17:11:24;15.90;99.90
3086;DHT22;52812;48.960;9.108;2022-09-09T17:13:53;15.90;99.90
3086;DHT22;52812;48.960;9.108;2022-09-09T17:16:21;15.90;99.90
3086;DHT22;52812;48.960;9.108;2022-09-09T17:18:49;15.90;99.90
3086;DHT22;52812;48.960;9.108;2022-09-09T17:21:17;15.80;99.90
3086;DHT22;52812;48.960;9.108;2022-09-09T17:23:43;15.70;99.90
3086;DHT22;52812;48.960;9.108;2022-09-09T17:26:13;15.70;99.90
3086;DHT22;52812;48.960;9.108;2022-09-09T17:28:40;15.70;99.90
3086;DHT22;52812;48.960;9.108;2022-09-09T17:31:07;15.50;99.90
3086;DHT22;52812;48.960;9.108;2022-09-09T17:33:35;15.40;99.90
3086;DHT22;52812;48.960;9.108;2022-09-09T17:36:06;15.30;99.90
3086;DHT22;52812;48.960;9.108;2022-09-09T17:38:33;15.30;99.90
3086;DHT22;52812;48.960;9.108;2022-09-09T17:41:07;15.20;99.90
3086;DHT22;52812;48.960;9.108;2022-09-09T17:43:34;15.20;99.90
3086;DHT22;52812;48.960;9.108;2022-09-09T17:46:18;15.20;99.90
3086;DHT22;52812;48.960;9.108;2022-09-09T17:48:49;15.10;99.90
3086;DHT22;52812;48.960;9.108;2022-09-09T17:51:17;15.10;99.90
3086;DHT22;52812;48.960;9.108;2022-09-09T17:53:48;15.00;99.90
3086;DHT22;52812;48.960;9.108;2022-09-09T17:56:16;15.00;99.90